createdAt,value
2023-05-15T00:01:24.634Z,12.97
2023-05-15T00:03:52.038Z,12.95
2023-05-15T00:06:18.719Z,12.88
2023-05-15T00:08:45.192Z,12.79
2023-05-15T00:11:13.648Z,12.74
2023-05-15T00:13:40.214Z,12.69
2023-05-15T00:16:08.519Z,12.65
2023-05-15T00:18:35.233Z,12.62
2023-05-15T00:21:01.828Z,12.60
2023-05-15T00:23:28.277Z,12.58
2023-05-15T00:25:54.701Z,12.55
2023-05-15T00:28:21.188Z,12.57
2023-05-15T00:30:48.250Z,12.57
2023-05-15T00:33:14.711Z,12.50
2023-05-15T00:35:41.169Z,12.42
2023-05-15T00:38:07.619Z,12.35
2023-05-15T00:40:35.687Z,12.28
2023-05-15T00:43:02.575Z,12.23
2023-05-15T00:45:30.261Z,12.13
2023-05-15T00:47:58.955Z,12.10
2023-05-15T00:50:26.002Z,12.07
2023-05-15T00:52:53.015Z,12.06
2023-05-15T00:55:19.591Z,12.04
2023-05-15T00:57:47.780Z,12.02
2023-05-15T01:00:16.834Z,12.01
2023-05-15T01:02:44.071Z,12.04
2023-05-15T01:05:10.745Z,12.03
2023-05-15T01:07:44.855Z,12.03
2023-05-15T01:10:12.615Z,11.94
2023-05-15T01:12:41.344Z,11.76
2023-05-15T01:15:08.453Z,11.76
2023-05-15T01:17:35.578Z,11.75
2023-05-15T01:20:06.376Z,11.72
2023-05-15T01:23:01.290Z,11.64
2023-05-15T01:26:05.971Z,11.64
2023-05-15T01:28:39.862Z,11.65
2023-05-15T01:31:15.567Z,11.62
2023-05-15T01:33:46.917Z,11.61
2023-05-15T01:36:21.646Z,11.61
2023-05-15T01:38:55.801Z,11.62
2023-05-15T01:41:51.131Z,11.61
2023-05-15T01:44:30.199Z,11.61
2023-05-15T01:47:04.752Z,11.59
2023-05-15T01:49:32.610Z,11.57
2023-05-15T01:52:06.740Z,11.54
2023-05-15T01:54:34.149Z,11.51
2023-05-15T01:57:01.523Z,11.51
2023-05-15T01:59:29.405Z,11.49
2023-05-15T02:01:57.641Z,11.48
2023-05-15T02:04:26.090Z,11.52
2023-05-15T02:06:54.614Z,11.55
2023-05-15T02:09:23.174Z,11.54
2023-05-15T02:11:50.560Z,11.45
2023-05-15T02:14:17.505Z,11.43
2023-05-15T02:16:44.180Z,11.41
2023-05-15T02:19:10.794Z,11.37
2023-05-15T02:21:37.365Z,11.34
2023-05-15T02:24:05.139Z,11.36
2023-05-15T02:26:36.586Z,11.36
2023-05-15T02:29:21.788Z,11.36
2023-05-15T02:32:21.094Z,11.39
2023-05-15T02:35:12.629Z,11.38
2023-05-15T02:37:41.741Z,11.37
2023-05-15T02:40:12.539Z,11.35
2023-05-15T02:42:40.478Z,11.35
2023-05-15T02:45:09.303Z,11.35
2023-05-15T02:47:36.886Z,11.37
2023-05-15T02:50:04.596Z,11.37
2023-05-15T02:52:35.047Z,11.35
2023-05-15T02:55:01.721Z,11.34
2023-05-15T02:57:28.234Z,11.32
2023-05-15T02:59:56.235Z,11.20
2023-05-15T03:02:23.020Z,11.15
2023-05-15T03:04:49.516Z,11.11
2023-05-15T03:07:16.094Z,11.06
2023-05-15T03:09:42.656Z,11.03
2023-05-15T03:12:11.400Z,10.95
2023-05-15T03:14:37.965Z,10.92
2023-05-15T03:17:04.721Z,10.92
2023-05-15T03:19:31.280Z,10.87
2023-05-15T03:21:57.780Z,10.80
2023-05-15T03:24:24.315Z,10.83
2023-05-15T03:26:50.832Z,10.87
2023-05-15T03:29:17.288Z,10.88
2023-05-15T03:31:43.767Z,10.92
2023-05-15T03:34:10.333Z,10.93
2023-05-15T03:36:36.869Z,10.91
2023-05-15T03:39:05.905Z,10.92
2023-05-15T03:41:32.445Z,10.87
2023-05-15T03:44:00.548Z,10.88
2023-05-15T03:46:26.990Z,10.88
2023-05-15T03:48:54.714Z,10.89
2023-05-15T03:51:21.953Z,10.89
2023-05-15T03:53:48.560Z,10.89
2023-05-15T03:56:15.144Z,10.89
2023-05-15T03:58:41.608Z,10.91
2023-05-15T04:01:08.118Z,10.93
2023-05-15T04:03:34.667Z,10.86
2023-05-15T04:06:01.186Z,10.81
2023-05-15T04:08:27.684Z,10.80
2023-05-15T04:10:54.585Z,10.85
2023-05-15T04:13:21.018Z,10.86
2023-05-15T04:15:48.646Z,10.88
2023-05-15T04:18:15.210Z,10.91
2023-05-15T04:20:41.616Z,10.94
2023-05-15T04:23:08.120Z,10.90
2023-05-15T04:25:34.625Z,10.88
2023-05-15T04:28:01.213Z,10.92
2023-05-15T04:30:27.647Z,10.92
2023-05-15T04:32:54.208Z,10.88
2023-05-15T04:35:20.768Z,10.76
2023-05-15T04:37:47.476Z,10.73
2023-05-15T04:40:16.196Z,10.67
2023-05-15T04:42:42.902Z,10.62
2023-05-15T04:45:09.751Z,10.59
2023-05-15T04:47:36.780Z,10.58
2023-05-15T04:50:03.857Z,10.64
2023-05-15T04:52:30.372Z,10.61
2023-05-15T04:54:56.896Z,10.62
2023-05-15T04:57:23.656Z,10.60
2023-05-15T04:59:51.218Z,10.65
2023-05-15T05:02:24.632Z,10.64
2023-05-15T05:04:51.295Z,10.65
2023-05-15T05:07:18.150Z,10.75
2023-05-15T05:09:45.053Z,10.81
2023-05-15T05:12:11.528Z,10.89
2023-05-15T05:14:40.708Z,10.94
2023-05-15T05:17:07.259Z,11.01
2023-05-15T05:19:33.805Z,11.02
2023-05-15T05:22:04.604Z,11.02
2023-05-15T05:24:37.587Z,11.05
2023-05-15T05:27:05.505Z,11.08
2023-05-15T05:29:32.118Z,11.17
2023-05-15T05:31:58.862Z,11.27
2023-05-15T05:34:25.301Z,11.35
2023-05-15T05:36:52.186Z,11.43
2023-05-15T05:39:18.814Z,11.41
2023-05-15T05:41:45.585Z,11.49
2023-05-15T05:44:14.191Z,11.58
2023-05-15T05:46:40.763Z,11.69
2023-05-15T05:49:07.219Z,11.67
2023-05-15T05:51:36.886Z,11.68
2023-05-15T05:54:03.973Z,11.67
2023-05-15T05:56:30.682Z,11.70
2023-05-15T05:58:57.249Z,11.75
2023-05-15T06:01:23.768Z,11.90
2023-05-15T06:03:51.076Z,12.15
2023-05-15T06:06:17.961Z,12.11
2023-05-15T06:08:44.486Z,12.04
2023-05-15T06:11:11.574Z,11.95
2023-05-15T06:13:38.080Z,12.03
2023-05-15T06:16:05.135Z,12.27
2023-05-15T06:18:31.659Z,12.36
2023-05-15T06:21:03.273Z,12.95
2023-05-15T06:23:41.104Z,13.50
2023-05-15T06:26:16.299Z,13.99
2023-05-15T06:28:44.210Z,14.06
2023-05-15T06:31:33.892Z,14.11
2023-05-15T06:34:00.506Z,14.15
2023-05-15T06:37:01.173Z,15.06
2023-05-15T06:39:27.782Z,15.71
2023-05-15T06:42:12.820Z,15.71
2023-05-15T06:45:31.636Z,15.68
2023-05-15T06:48:23.631Z,15.50
2023-05-15T06:50:50.563Z,15.76
2023-05-15T06:53:18.647Z,15.96
2023-05-15T06:55:45.044Z,15.93
2023-05-15T06:58:11.704Z,15.92
2023-05-15T07:00:38.182Z,16.12
2023-05-15T07:03:04.692Z,16.10
2023-05-15T07:05:32.741Z,16.19
2023-05-15T07:07:59.599Z,16.55
2023-05-15T07:10:26.458Z,17.15
2023-05-15T07:12:53.428Z,17.74
2023-05-15T07:15:20.042Z,18.10
2023-05-15T07:17:46.569Z,17.95
2023-05-15T07:20:14.378Z,18.18
2023-05-15T07:22:51.903Z,18.41
2023-05-15T07:25:22.272Z,18.33
2023-05-15T07:27:48.792Z,18.52
2023-05-15T07:30:15.381Z,18.83
2023-05-15T07:32:42.047Z,19.00
2023-05-15T07:35:09.026Z,19.04
2023-05-15T07:37:35.609Z,19.07
2023-05-15T07:40:02.218Z,19.20
2023-05-15T07:42:28.742Z,19.82
2023-05-15T07:44:55.272Z,19.78
2023-05-15T07:47:21.749Z,19.94
2023-05-15T07:49:48.304Z,19.75
2023-05-15T07:52:21.928Z,19.45
2023-05-15T07:54:49.527Z,19.05
2023-05-15T07:57:15.998Z,18.76
2023-05-15T07:59:42.495Z,18.78
2023-05-15T08:02:09.034Z,18.69
2023-05-15T08:04:35.601Z,18.73
2023-05-15T08:07:02.291Z,18.89
2023-05-15T08:09:29.057Z,19.23
2023-05-15T08:11:56.486Z,19.39
2023-05-15T08:14:23.095Z,20.12
2023-05-15T08:16:51.449Z,20.59
2023-05-15T08:19:19.188Z,21.10
2023-05-15T08:21:45.791Z,21.20
2023-05-15T08:24:12.594Z,20.87
2023-05-15T08:26:39.108Z,20.94
2023-05-15T08:29:05.684Z,20.78
2023-05-15T08:31:32.275Z,20.75
2023-05-15T08:33:58.947Z,20.89
2023-05-15T08:36:25.498Z,20.97
2023-05-15T08:38:52.242Z,20.73
2023-05-15T08:41:40.133Z,20.42
2023-05-15T08:44:09.823Z,20.10
2023-05-15T08:46:36.562Z,20.07
2023-05-15T08:49:14.005Z,20.05
2023-05-15T08:51:40.783Z,20.24
2023-05-15T08:54:09.362Z,20.26
2023-05-15T08:56:36.243Z,20.22
2023-05-15T08:59:03.611Z,19.97
2023-05-15T09:01:30.543Z,19.73
2023-05-15T09:03:57.078Z,19.64
2023-05-15T09:06:24.883Z,19.73
2023-05-15T09:08:56.913Z,19.97
2023-05-15T09:11:26.915Z,20.10
2023-05-15T09:13:53.512Z,20.06
2023-05-15T09:16:21.583Z,20.41
2023-05-15T09:18:50.199Z,20.37
2023-05-15T09:21:27.406Z,20.49
2023-05-15T09:23:55.720Z,20.51
2023-05-15T09:26:22.343Z,20.62
2023-05-15T09:28:49.493Z,21.02
2023-05-15T09:31:19.852Z,21.19
2023-05-15T09:33:46.453Z,21.52
2023-05-15T09:36:21.691Z,21.60
2023-05-15T09:38:49.692Z,21.32
2023-05-15T09:41:24.882Z,21.01
2023-05-15T09:43:51.460Z,20.99
2023-05-15T09:46:18.067Z,20.94
2023-05-15T09:48:44.733Z,21.16
2023-05-15T09:51:16.624Z,20.95
2023-05-15T09:53:48.336Z,20.76
2023-05-15T09:56:14.865Z,20.75
2023-05-15T09:58:54.333Z,21.03
2023-05-15T10:01:22.434Z,21.37
2023-05-15T10:06:47.162Z,21.14
2023-05-15T10:09:14.823Z,20.84
2023-05-15T10:11:43.554Z,20.53
2023-05-15T10:14:12.374Z,20.43
2023-05-15T10:16:40.368Z,20.30
2023-05-15T10:19:11.942Z,20.19
2023-05-15T10:21:41.084Z,20.05
2023-05-15T10:24:08.726Z,19.83
2023-05-15T10:26:43.160Z,19.65
2023-05-15T10:29:11.929Z,19.54
2023-05-15T10:31:42.246Z,19.44
2023-05-15T10:34:09.987Z,19.39
2023-05-15T10:36:39.116Z,19.35
2023-05-15T10:39:07.384Z,19.31
2023-05-15T10:41:36.675Z,19.36
2023-05-15T10:44:03.582Z,19.39
2023-05-15T10:46:31.966Z,19.29
2023-05-15T10:49:00.618Z,19.09
2023-05-15T10:51:29.283Z,19.06
2023-05-15T10:53:56.699Z,19.11
2023-05-15T10:56:29.311Z,18.91
2023-05-15T10:58:56.176Z,18.74
2023-05-15T11:01:33.529Z,18.83
2023-05-15T11:04:14.545Z,18.99
2023-05-15T11:06:46.940Z,19.12
2023-05-15T11:09:22.751Z,19.06
2023-05-15T11:11:52.508Z,19.14
2023-05-15T11:14:19.654Z,19.25
2023-05-15T11:16:55.278Z,19.01
2023-05-15T11:19:59.371Z,18.85
2023-05-15T11:22:35.884Z,18.96
2023-05-15T11:25:12.404Z,18.76
2023-05-15T11:27:41.015Z,18.55
2023-05-15T11:30:08.901Z,18.63
2023-05-15T11:32:45.241Z,18.52
2023-05-15T11:35:19.431Z,18.49
2023-05-15T11:37:47.667Z,18.57
2023-05-15T11:40:18.522Z,18.59
2023-05-15T11:43:17.938Z,18.62
2023-05-15T11:45:47.811Z,18.47
2023-05-15T11:48:15.487Z,18.54
2023-05-15T11:50:43.488Z,18.66
2023-05-15T11:53:10.535Z,18.86
2023-05-15T11:55:42.481Z,18.83
2023-05-15T11:58:14.121Z,18.80
2023-05-15T12:00:41.854Z,18.65
2023-05-15T12:03:20.344Z,18.32
2023-05-15T12:05:57.444Z,18.33
2023-05-15T12:08:30.771Z,18.29
2023-05-15T12:10:58.921Z,18.46
2023-05-15T12:13:25.393Z,18.50
2023-05-15T12:15:51.944Z,18.65
2023-05-15T12:18:18.480Z,18.88
2023-05-15T12:20:46.709Z,19.18
2023-05-15T12:23:17.594Z,19.31
2023-05-15T12:25:47.069Z,19.43
2023-05-15T12:28:15.258Z,19.41
2023-05-15T12:30:42.606Z,19.68
2023-05-15T12:33:10.776Z,19.96
2023-05-15T12:35:42.183Z,20.07
2023-05-15T12:38:09.066Z,20.10
2023-05-15T12:40:36.973Z,20.34
2023-05-15T12:43:07.448Z,20.45
2023-05-15T12:45:36.227Z,20.29
2023-05-15T12:48:03.448Z,20.12
2023-05-15T12:50:32.491Z,20.03
2023-05-15T12:53:01.621Z,19.94
2023-05-15T12:55:33.471Z,19.68
2023-05-15T12:58:06.313Z,19.67
2023-05-15T13:00:35.316Z,19.91
2023-05-15T13:03:02.498Z,19.99
2023-05-15T13:05:32.558Z,20.15
2023-05-15T13:08:00.374Z,20.31
2023-05-15T13:10:27.175Z,20.37
2023-05-15T13:12:56.171Z,20.29
2023-05-15T13:15:25.786Z,19.92
2023-05-15T13:17:53.001Z,19.79
2023-05-15T13:20:19.475Z,19.77
2023-05-15T13:22:45.873Z,19.94
2023-05-15T13:25:17.715Z,20.20
2023-05-15T13:27:44.121Z,20.13
2023-05-15T13:30:11.465Z,19.83
2023-05-15T13:32:38.200Z,19.58
2023-05-15T13:35:05.087Z,19.20
2023-05-15T13:37:31.973Z,19.00
2023-05-15T13:39:58.425Z,18.74
2023-05-15T13:42:24.951Z,18.65
2023-05-15T13:44:51.385Z,18.66
2023-05-15T13:47:18.032Z,18.60
2023-05-15T13:49:45.912Z,18.30
2023-05-15T13:52:12.794Z,18.17
2023-05-15T13:54:39.798Z,17.93
2023-05-15T13:57:06.464Z,17.84
2023-05-15T13:59:33.076Z,17.71
2023-05-15T14:02:12.632Z,17.65
2023-05-15T14:04:39.194Z,17.48
2023-05-15T14:07:05.871Z,17.29
2023-05-15T14:09:57.949Z,17.25
2023-05-15T14:12:25.914Z,17.39
2023-05-15T14:14:52.455Z,17.54
2023-05-15T14:17:25.297Z,17.68
2023-05-15T14:19:52.119Z,17.92
2023-05-15T14:22:18.764Z,18.08
2023-05-15T14:24:45.513Z,18.30
2023-05-15T14:29:52.548Z,18.68
2023-05-15T14:32:19.250Z,18.51
2023-05-15T14:35:10.740Z,18.23
2023-05-15T14:37:37.618Z,17.89
2023-05-15T14:40:30.497Z,17.87
2023-05-15T14:42:56.983Z,17.84
2023-05-15T14:45:23.555Z,17.63
2023-05-15T14:47:50.285Z,17.55
2023-05-15T14:50:16.811Z,17.44
2023-05-15T14:52:43.318Z,17.27
2023-05-15T14:55:10.233Z,17.10
2023-05-15T14:57:37.456Z,17.06
2023-05-15T15:00:08.588Z,17.01
2023-05-15T15:02:35.219Z,16.86
2023-05-15T15:05:01.814Z,16.66
2023-05-15T15:07:30.537Z,16.65
2023-05-15T15:09:56.951Z,16.76
2023-05-15T15:12:23.466Z,16.73
2023-05-15T15:14:49.901Z,16.62
2023-05-15T15:17:16.357Z,16.64
2023-05-15T15:19:42.766Z,16.53
2023-05-15T15:22:09.258Z,16.51
2023-05-15T15:24:35.660Z,16.29
2023-05-15T15:27:02.106Z,16.27
2023-05-15T15:29:28.588Z,16.30
2023-05-15T15:31:55.188Z,16.37
2023-05-15T15:34:21.960Z,16.38
2023-05-15T15:36:49.478Z,16.32
2023-05-15T15:39:18.260Z,16.13
2023-05-15T15:41:45.153Z,16.16
2023-05-15T15:44:11.616Z,16.24
2023-05-15T15:46:38.071Z,16.07
2023-05-15T15:49:06.620Z,16.06
2023-05-15T15:51:33.400Z,16.09
2023-05-15T15:53:59.894Z,16.21
2023-05-15T15:56:26.353Z,16.20
2023-05-15T15:58:53.083Z,16.10
2023-05-15T16:01:22.305Z,15.95
2023-05-15T16:03:51.008Z,15.85
2023-05-15T16:06:17.525Z,15.78
2023-05-15T16:08:44.063Z,15.56
2023-05-15T16:11:10.542Z,15.48
2023-05-15T16:13:41.088Z,15.46
2023-05-15T16:16:08.032Z,15.35
2023-05-15T16:18:34.983Z,15.39
2023-05-15T16:21:04.015Z,15.21
2023-05-15T16:23:37.721Z,15.16
2023-05-15T16:26:09.386Z,15.19
2023-05-15T16:28:35.897Z,15.20
2023-05-15T16:31:03.351Z,15.21
2023-05-15T16:33:32.965Z,15.25
2023-05-15T16:36:00.729Z,15.38
2023-05-15T16:38:27.294Z,15.36
2023-05-15T16:40:53.823Z,15.45
2023-05-15T16:43:21.743Z,15.49
2023-05-15T16:45:48.219Z,15.50
2023-05-15T16:48:14.799Z,15.53
2023-05-15T16:50:41.371Z,15.45
2023-05-15T16:53:08.414Z,15.48
2023-05-15T16:55:36.101Z,15.44
2023-05-15T16:58:02.619Z,15.36
2023-05-15T17:00:29.176Z,15.29
2023-05-15T17:02:55.795Z,15.23
2023-05-15T17:05:22.287Z,15.09
2023-05-15T17:07:48.760Z,15.04
2023-05-15T17:10:15.230Z,15.13
2023-05-15T17:12:41.785Z,15.17
2023-05-15T17:15:08.584Z,15.10
2023-05-15T17:17:35.137Z,14.94
2023-05-15T17:20:03.620Z,14.92
2023-05-15T17:22:30.436Z,14.87
2023-05-15T17:24:57.203Z,14.81
2023-05-15T17:27:23.702Z,14.71
2023-05-15T17:29:50.756Z,14.77
2023-05-15T17:32:17.885Z,14.80
2023-05-15T17:34:44.944Z,14.77
2023-05-15T17:37:11.749Z,14.77
2023-05-15T17:39:39.759Z,14.72
2023-05-15T17:42:06.286Z,14.67
2023-05-15T17:44:32.778Z,14.65
2023-05-15T17:46:59.935Z,14.52
2023-05-15T17:49:26.525Z,14.30
2023-05-15T17:51:54.182Z,14.18
2023-05-15T17:54:23.699Z,14.16
2023-05-15T17:56:50.612Z,14.02
2023-05-15T17:59:17.217Z,13.93
2023-05-15T18:01:43.883Z,13.90
2023-05-15T18:04:10.717Z,13.87
2023-05-15T18:06:37.776Z,13.83
2023-05-15T18:09:04.971Z,13.75
2023-05-15T18:11:31.397Z,13.61
2023-05-15T18:13:57.913Z,13.60
2023-05-15T18:16:26.061Z,13.66
2023-05-15T18:18:52.801Z,13.63
2023-05-15T18:21:47.569Z,13.63
2023-05-15T18:24:14.562Z,13.58
2023-05-15T18:26:42.508Z,13.60
2023-05-15T18:29:11.633Z,13.57
2023-05-15T18:31:38.372Z,13.38
2023-05-15T18:34:22.966Z,13.28
2023-05-15T18:37:15.844Z,13.21
2023-05-15T18:39:46.378Z,13.16
2023-05-15T18:42:13.391Z,13.04
2023-05-15T18:44:40.182Z,13.03
2023-05-15T18:47:07.000Z,13.05
2023-05-15T18:49:33.892Z,13.02
2023-05-15T18:52:00.406Z,13.02
2023-05-15T18:54:29.119Z,13.02
2023-05-15T18:56:57.368Z,12.98
2023-05-15T18:59:24.224Z,12.94
2023-05-15T19:01:53.223Z,12.92
2023-05-15T19:04:20.355Z,12.87
2023-05-15T19:06:50.390Z,12.91
2023-05-15T19:09:20.519Z,12.82
2023-05-15T19:11:49.696Z,12.88
2023-05-15T19:14:18.231Z,12.88
2023-05-15T19:16:46.102Z,12.88
2023-05-15T19:19:12.862Z,12.84
2023-05-15T19:21:41.142Z,12.76
2023-05-15T19:24:08.885Z,12.70
2023-05-15T19:26:35.494Z,12.64
2023-05-15T19:29:01.966Z,12.67
2023-05-15T19:31:31.839Z,12.64
2023-05-15T19:34:00.064Z,12.59
2023-05-15T19:36:26.948Z,12.57
2023-05-15T19:38:53.452Z,12.51
2023-05-15T19:41:22.519Z,12.38
2023-05-15T19:43:51.064Z,12.24
2023-05-15T19:46:20.894Z,12.10
2023-05-15T19:48:50.389Z,11.93
2023-05-15T19:51:17.735Z,11.74
2023-05-15T19:53:47.097Z,11.74
2023-05-15T19:56:16.509Z,11.66
2023-05-15T19:58:45.482Z,11.66
2023-05-15T20:01:12.024Z,11.64
2023-05-15T20:03:39.211Z,11.59
2023-05-15T20:06:06.093Z,11.60
2023-05-15T20:08:32.598Z,11.51
2023-05-15T20:11:00.247Z,11.41
2023-05-15T20:13:27.164Z,11.40
2023-05-15T20:15:57.992Z,11.39
2023-05-15T20:18:30.380Z,11.43
2023-05-15T20:21:00.182Z,11.44
2023-05-15T20:23:26.739Z,11.37
2023-05-15T20:25:53.465Z,11.30
2023-05-15T20:28:21.476Z,11.21
2023-05-15T20:30:47.972Z,11.08
2023-05-15T20:33:14.646Z,11.03
2023-05-15T20:35:42.646Z,11.05
2023-05-15T20:38:10.436Z,10.97
2023-05-15T20:40:37.226Z,10.97
2023-05-15T20:43:04.072Z,10.97
2023-05-15T20:45:32.265Z,10.93
2023-05-15T20:47:59.100Z,10.94
2023-05-15T20:50:26.062Z,10.92
2023-05-15T20:52:53.033Z,10.87
2023-05-15T20:55:20.165Z,10.80
2023-05-15T20:57:47.985Z,10.77
2023-05-15T21:00:16.628Z,10.77
2023-05-15T21:02:44.307Z,10.76
2023-05-15T21:05:10.939Z,10.80
2023-05-15T21:07:38.887Z,10.89
2023-05-15T21:10:06.055Z,10.90
2023-05-15T21:12:32.727Z,10.86
2023-05-15T21:14:59.485Z,10.85
2023-05-15T21:17:26.214Z,10.82
2023-05-15T21:19:53.669Z,10.78
2023-05-15T21:22:20.250Z,10.78
2023-05-15T21:24:46.799Z,10.77
2023-05-15T21:27:13.664Z,10.74
2023-05-15T21:29:40.205Z,10.73
2023-05-15T21:32:06.947Z,10.70
2023-05-15T21:34:33.483Z,10.69
2023-05-15T21:37:00.052Z,10.65
2023-05-15T21:39:26.544Z,10.65
2023-05-15T21:41:53.061Z,10.68
2023-05-15T21:44:19.534Z,10.69
2023-05-15T21:46:46.061Z,10.73
2023-05-15T21:49:12.593Z,10.76
2023-05-15T21:51:39.093Z,10.74
2023-05-15T21:54:05.943Z,10.73
2023-05-15T21:56:32.562Z,10.72
2023-05-15T21:58:59.102Z,10.71
2023-05-15T22:01:25.826Z,10.67
2023-05-15T22:03:52.338Z,10.64
2023-05-15T22:06:18.855Z,10.64
2023-05-15T22:08:45.297Z,10.61
2023-05-15T22:11:11.888Z,10.58
2023-05-15T22:13:38.293Z,10.60
2023-05-15T22:16:06.006Z,10.61
2023-05-15T22:18:32.669Z,10.60
2023-05-15T22:21:01.783Z,10.63
2023-05-15T22:23:28.281Z,10.64
2023-05-15T22:25:54.786Z,10.65
2023-05-15T22:28:21.414Z,10.64
2023-05-15T22:30:47.887Z,10.66
2023-05-15T22:33:14.376Z,10.65
2023-05-15T22:35:41.219Z,10.63
2023-05-15T22:38:07.712Z,10.62
2023-05-15T22:40:34.287Z,10.61
2023-05-15T22:43:00.798Z,10.60
2023-05-15T22:45:27.313Z,10.59
2023-05-15T22:47:53.839Z,10.58
2023-05-15T22:50:20.304Z,10.53
2023-05-15T22:52:46.808Z,10.51
2023-05-15T22:55:13.687Z,10.49
2023-05-15T22:57:40.327Z,10.47
2023-05-15T23:00:08.056Z,10.46
2023-05-15T23:02:39.399Z,10.43
2023-05-15T23:05:06.567Z,10.41
2023-05-15T23:07:33.026Z,10.37
2023-05-15T23:10:00.683Z,10.31
2023-05-15T23:12:27.158Z,10.28
2023-05-15T23:14:53.572Z,10.27
2023-05-15T23:17:19.980Z,10.29
2023-05-15T23:19:46.521Z,10.31
2023-05-15T23:22:12.924Z,10.32
2023-05-15T23:24:39.300Z,10.27
2023-05-15T23:27:05.697Z,10.23
2023-05-15T23:29:33.868Z,10.18
2023-05-15T23:32:00.638Z,10.12
2023-05-15T23:34:28.559Z,10.05
2023-05-15T23:36:55.063Z,10.03
2023-05-15T23:39:21.478Z,10.02
2023-05-15T23:41:51.475Z,10.00
2023-05-15T23:44:18.187Z,9.93
2023-05-15T23:46:44.952Z,9.93
2023-05-15T23:49:11.447Z,9.95
2023-05-15T23:51:37.925Z,9.93
2023-05-15T23:54:04.414Z,9.93
2023-05-15T23:56:30.940Z,9.93
2023-05-15T23:58:57.396Z,9.86
